Time,TemperatureF,DewpointF,PressureIn,WindDirection,WindDirectionDegrees,WindSpeedMPH,WindSpeedGustMPH,Humidity,HourlyPrecipIn,Conditions,Clouds,dailyrainin,SoftwareType,DateUTC
2013-05-29 00:06:00,76.3,69.0,29.80,South,174,9.0,14.0,79,0.00,,,0.00,weatherlink.com 1.10,2013-05-29 05:06:00,
2013-05-29 00:21:00,76.1,69.0,29.79,SSE,167,3.0,18.0,79,0.00,,,0.00,weatherlink.com 1.10,2013-05-29 05:21:00,
2013-05-29 00:36:00,75.8,69.0,29.79,SE,144,11.0,15.0,80,0.00,,,0.00,weatherlink.com 1.10,2013-05-29 05:36:00,
2013-05-29 00:51:00,75.4,69.0,29.78,South,178,7.0,15.0,81,0.00,,,0.00,weatherlink.com 1.10,2013-05-29 05:51:00,
2013-05-29 01:06:00,75.2,69.0,29.78,SSW,210,10.0,16.0,82,0.00,,,0.00,weatherlink.com 1.10,2013-05-29 06:06:00,
2013-05-29 01:21:00,75.0,69.0,29.77,South,186,4.0,22.0,82,0.00,,,0.00,weatherlink.com 1.10,2013-05-29 06:21:00,
2013-05-29 01:36:00,74.9,69.0,29.76,SE,143,11.0,17.0,83,0.00,,,0.00,weatherlink.com 1.10,2013-05-29 06:36:00,
2013-05-29 01:51:00,74.6,69.0,29.75,SSE,149,9.0,15.0,83,0.00,,,0.00,weatherlink.com 1.10,2013-05-29 06:51:00,
2013-05-29 02:06:00,74.5,69.0,29.75,South,184,5.0,18.0,84,0.00,,,0.00,weatherlink.com 1.10,2013-05-29 07:06:00,
2013-05-29 02:21:00,74.6,70.0,29.76,South,170,7.0,22.0,84,0.00,,,0.00,weatherlink.com 1.10,2013-05-29 07:21:00,
2013-05-29 02:37:00,74.5,69.0,29.75,SSW,205,7.0,19.0,84,0.00,,,0.00,weatherlink.com 1.10,2013-05-29 07:37:00,
2013-05-29 02:52:00,74.4,69.0,29.73,SSE,162,8.0,23.0,84,0.00,,,0.00,weatherlink.com 1.10,2013-05-29 07:52:00,
2013-05-29 03:07:00,74.5,69.0,29.73,East,81,10.0,21.0,83,0.00,,,0.00,weatherlink.com 1.10,2013-05-29 08:07:00,
2013-05-29 03:22:00,74.2,69.0,29.72,SE,139,16.0,25.0,83,0.00,,,0.00,weatherlink.com 1.10,2013-05-29 08:22:00,
2013-05-29 03:37:00,74.1,69.0,29.70,SSW,194,7.0,21.0,83,0.00,,,0.00,weatherlink.com 1.10,2013-05-29 08:37:00,
2013-05-29 03:52:00,73.9,69.0,29.68,SSW,198,6.0,23.0,83,0.00,,,0.00,weatherlink.com 1.10,2013-05-29 08:52:00,
2013-05-29 04:07:00,73.8,69.0,29.67,SSE,158,13.0,27.0,84,0.00,,,0.00,weatherlink.com 1.10,2013-05-29 09:07:00,
2013-05-29 04:22:00,73.8,68.0,29.69,SSE,162,15.0,23.0,83,0.00,,,0.00,weatherlink.com 1.10,2013-05-29 09:22:00,
2013-05-29 04:37:00,74.2,68.0,29.72,South,191,18.0,20.0,82,0.00,,,0.00,weatherlink.com 1.10,2013-05-29 09:37:00,
2013-05-29 04:52:00,74.3,69.0,29.72,South,189,9.0,14.0,82,0.00,,,0.00,weatherlink.com 1.10,2013-05-29 09:52:00,
2013-05-29 05:07:00,74.4,69.0,29.72,South,178,7.0,19.0,82,0.00,,,0.00,weatherlink.com 1.10,2013-05-29 10:07:00,
2013-05-29 05:22:00,74.4,69.0,29.73,SSE,163,5.0,17.0,82,0.00,,,0.00,weatherlink.com 1.10,2013-05-29 10:22:00,
2013-05-29 05:37:00,74.4,69.0,29.72,SE,144,11.0,16.0,82,0.00,,,0.00,weatherlink.com 1.10,2013-05-29 10:37:00,
2013-05-29 05:52:00,74.5,69.0,29.71,South,180,7.0,18.0,82,0.00,,,0.00,weatherlink.com 1.10,2013-05-29 10:52:00,
2013-05-29 06:07:00,74.5,69.0,29.71,South,185,10.0,19.0,82,0.00,,,0.00,weatherlink.com 1.10,2013-05-29 11:07:00,
2013-05-29 06:22:00,74.6,69.0,29.71,SSE,160,10.0,17.0,82,0.00,,,0.00,weatherlink.com 1.10,2013-05-29 11:22:00,
2013-05-29 06:37:00,74.7,69.0,29.72,SSW,210,9.0,19.0,82,0.00,,,0.00,weatherlink.com 1.10,2013-05-29 11:37:00,
2013-05-29 06:52:00,74.7,69.0,29.72,SSE,168,3.0,19.0,82,0.00,,,0.00,weatherlink.com 1.10,2013-05-29 11:52:00,
2013-05-29 07:07:00,74.9,69.0,29.72,SSE,159,8.0,15.0,82,0.00,,,0.00,weatherlink.com 1.10,2013-05-29 12:07:00,
2013-05-29 07:22:00,75.1,69.0,29.72,South,176,10.0,17.0,82,0.00,,,0.00,weatherlink.com 1.10,2013-05-29 12:22:00,
2013-05-29 07:37:00,75.2,70.0,29.71,SSW,193,7.0,14.0,83,0.00,,,0.00,weatherlink.com 1.10,2013-05-29 12:37:00,
2013-05-29 07:52:00,75.5,70.0,29.71,South,189,8.0,15.0,83,0.00,,,0.00,weatherlink.com 1.10,2013-05-29 12:52:00,
2013-05-29 08:07:00,75.6,70.0,29.72,SE,133,7.0,14.0,83,0.00,,,0.00,weatherlink.com 1.10,2013-05-29 13:07:00,
2013-05-29 08:22:00,75.7,70.0,29.73,SSE,151,7.0,14.0,83,0.00,,,0.00,weatherlink.com 1.10,2013-05-29 13:22:00,
2013-05-29 08:37:00,75.7,70.0,29.73,South,170,4.0,13.0,83,0.00,,,0.00,weatherlink.com 1.10,2013-05-29 13:37:00,
2013-05-29 08:52:00,75.7,70.0,29.74,SE,141,2.0,11.0,83,0.00,,,0.00,weatherlink.com 1.10,2013-05-29 13:52:00,
2013-05-29 09:07:00,75.8,70.0,29.75,SSE,164,4.0,12.0,83,0.00,,,0.00,weatherlink.com 1.10,2013-05-29 14:07:00,
2013-05-29 09:22:00,76.3,70.0,29.74,South,177,5.0,13.0,82,0.00,,,0.00,weatherlink.com 1.10,2013-05-29 14:22:00,
2013-05-29 09:37:00,76.2,70.0,29.74,South,178,4.0,11.0,82,0.00,,,0.00,weatherlink.com 1.10,2013-05-29 14:37:00,
2013-05-29 09:52:00,75.9,70.0,29.75,SSE,164,6.0,13.0,83,0.00,,,0.00,weatherlink.com 1.10,2013-05-29 14:52:00,
2013-05-29 10:07:00,75.6,71.0,29.74,South,189,3.0,10.0,85,0.00,,,0.00,weatherlink.com 1.10,2013-05-29 15:07:00,
2013-05-29 10:22:00,76.1,71.0,29.73,SSE,168,10.0,11.0,84,0.00,,,0.00,weatherlink.com 1.10,2013-05-29 15:22:00,
2013-05-29 10:37:00,76.8,71.0,29.73,SSE,166,7.0,13.0,82,0.00,,,0.00,weatherlink.com 1.10,2013-05-29 15:37:00,
2013-05-29 10:52:00,77.8,72.0,29.74,South,170,6.0,14.0,81,0.00,,,0.00,weatherlink.com 1.10,2013-05-29 15:52:00,
2013-05-29 11:07:00,78.6,72.0,29.74,SSW,201,7.0,14.0,80,0.00,,,0.00,weatherlink.com 1.10,2013-05-29 16:07:00,
2013-05-29 11:22:00,78.4,72.0,29.73,SE,140,5.0,19.0,80,0.00,,,0.00,weatherlink.com 1.10,2013-05-29 16:22:00,
2013-05-29 11:37:00,79.7,73.0,29.73,South,181,5.0,14.0,79,0.00,,,0.00,weatherlink.com 1.10,2013-05-29 16:37:00,
2013-05-29 11:52:00,79.8,72.0,29.73,South,172,11.0,21.0,77,0.00,,,0.00,weatherlink.com 1.10,2013-05-29 16:52:00,
2013-05-29 12:07:00,79.1,72.0,29.74,SSE,158,7.0,17.0,78,0.00,,,0.00,weatherlink.com 1.10,2013-05-29 17:07:00,
2013-05-29 12:22:00,78.6,72.0,29.74,SSE,160,7.0,18.0,81,0.00,,,0.00,weatherlink.com 1.10,2013-05-29 17:22:00,
2013-05-29 12:37:00,78.6,72.0,29.75,SSE,158,8.0,16.0,81,0.00,,,0.00,weatherlink.com 1.10,2013-05-29 17:37:00,
2013-05-29 12:52:00,79.1,73.0,29.75,South,174,4.0,17.0,81,0.00,,,0.00,weatherlink.com 1.10,2013-05-29 17:52:00,
2013-05-29 13:07:00,79.7,73.0,29.74,SSW,192,10.0,15.0,80,0.00,,,0.00,weatherlink.com 1.10,2013-05-29 18:07:00,
2013-05-29 13:22:00,79.3,73.0,29.74,South,171,9.0,14.0,80,0.00,,,0.00,weatherlink.com 1.10,2013-05-29 18:22:00,
2013-05-29 13:37:00,79.1,72.0,29.74,South,171,3.0,19.0,80,0.00,,,0.00,weatherlink.com 1.10,2013-05-29 18:37:00,
2013-05-29 13:52:00,79.4,73.0,29.73,South,173,3.0,13.0,80,0.00,,,0.00,weatherlink.com 1.10,2013-05-29 18:52:00,
2013-05-29 14:07:00,80.2,73.0,29.73,SE,129,10.0,17.0,78,0.00,,,0.00,weatherlink.com 1.10,2013-05-29 19:07:00,
2013-05-29 14:22:00,80.7,73.0,29.72,South,178,10.0,15.0,77,0.00,,,0.00,weatherlink.com 1.10,2013-05-29 19:22:00,
2013-05-29 14:37:00,81.6,73.0,29.72,SSE,148,9.0,21.0,76,0.00,,,0.00,weatherlink.com 1.10,2013-05-29 19:37:00,
2013-05-29 14:52:00,81.5,73.0,29.71,South,172,4.0,14.0,74,0.00,,,0.00,weatherlink.com 1.10,2013-05-29 19:52:00,
2013-05-29 15:07:00,80.8,73.0,29.71,South,169,10.0,17.0,76,0.00,,,0.00,weatherlink.com 1.10,2013-05-29 20:07:00,
2013-05-29 15:22:00,79.5,74.0,29.70,South,173,5.0,16.0,83,0.01,,,0.01,weatherlink.com 1.10,2013-05-29 20:22:00,
2013-05-29 15:38:00,80.9,73.0,29.70,SSE,152,14.0,20.0,78,0.01,,,0.01,weatherlink.com 1.10,2013-05-29 20:38:00,
2013-05-29 15:53:00,78.0,75.0,29.70,SSE,167,5.0,12.0,90,0.05,,,0.05,weatherlink.com 1.10,2013-05-29 20:53:00,
2013-05-29 16:08:00,80.6,76.0,29.68,SE,144,3.0,12.0,85,0.05,,,0.05,weatherlink.com 1.10,2013-05-29 21:08:00,
2013-05-29 16:23:00,82.5,76.0,29.67,SSW,195,9.0,14.0,80,0.04,,,0.05,weatherlink.com 1.10,2013-05-29 21:23:00,
2013-05-29 16:38:00,82.5,75.0,29.66,South,187,4.0,17.0,77,0.04,,,0.05,weatherlink.com 1.10,2013-05-29 21:38:00,
2013-05-29 16:53:00,82.3,73.0,29.66,SSE,161,13.0,20.0,73,0.00,,,0.05,weatherlink.com 1.10,2013-05-29 21:53:00,
2013-05-29 17:08:00,83.7,74.0,29.66,South,174,21.0,21.0,72,0.00,,,0.05,weatherlink.com 1.10,2013-05-29 22:08:00,
2013-05-29 17:23:00,83.8,73.0,29.65,South,177,5.0,18.0,70,0.00,,,0.05,weatherlink.com 1.10,2013-05-29 22:23:00,
2013-05-29 17:38:00,84.8,74.0,29.65,South,177,6.0,17.0,69,0.00,,,0.05,weatherlink.com 1.10,2013-05-29 22:38:00,
2013-05-29 17:53:00,84.1,72.0,29.65,SE,130,11.0,19.0,68,0.00,,,0.05,weatherlink.com 1.10,2013-05-29 22:53:00,
2013-05-29 18:08:00,83.9,73.0,29.64,SSW,199,14.0,23.0,69,0.00,,,0.05,weatherlink.com 1.10,2013-05-29 23:08:00,
2013-05-29 18:23:00,83.1,72.0,29.64,SSE,161,10.0,23.0,69,0.00,,,0.05,weatherlink.com 1.10,2013-05-29 23:23:00,
2013-05-29 18:38:00,82.6,72.0,29.64,South,188,8.0,17.0,70,0.00,,,0.05,weatherlink.com 1.10,2013-05-29 23:38:00,
2013-05-29 18:53:00,80.8,72.0,29.64,SSE,151,10.0,22.0,74,0.00,,,0.05,weatherlink.com 1.10,2013-05-29 23:53:00,
2013-05-29 19:08:00,81.0,72.0,29.65,SE,138,10.0,15.0,75,0.01,,,0.06,weatherlink.com 1.10,2013-05-30 00:08:00,
2013-05-29 19:23:00,80.9,72.0,29.64,SSE,158,10.0,21.0,74,0.01,,,0.06,weatherlink.com 1.10,2013-05-30 00:23:00,
2013-05-29 19:38:00,80.7,72.0,29.65,South,188,9.0,28.0,74,0.01,,,0.06,weatherlink.com 1.10,2013-05-30 00:38:00,
2013-05-29 19:53:00,80.2,71.0,29.66,South,175,7.0,19.0,73,0.01,,,0.06,weatherlink.com 1.10,2013-05-30 00:53:00,
2013-05-29 20:08:00,80.2,71.0,29.66,South,185,7.0,22.0,74,0.00,,,0.06,weatherlink.com 1.10,2013-05-30 01:08:00,
2013-05-29 20:38:00,79.1,71.0,29.68,SSW,194,11.0,16.0,75,0.00,,,0.06,weatherlink.com 1.10,2013-05-30 01:38:00,
2013-05-29 20:53:00,78.8,70.0,29.68,SE,145,5.0,16.0,75,0.00,,,0.06,weatherlink.com 1.10,2013-05-30 01:53:00,
2013-05-29 21:08:00,78.5,70.0,29.68,SSE,151,11.0,16.0,76,0.00,,,0.06,weatherlink.com 1.10,2013-05-30 02:08:00,
2013-05-29 21:23:00,78.1,70.0,29.68,South,175,10.0,17.0,77,0.00,,,0.06,weatherlink.com 1.10,2013-05-30 02:23:00,
2013-05-29 21:38:00,78.0,70.0,29.68,South,171,5.0,15.0,77,0.00,,,0.06,weatherlink.com 1.10,2013-05-30 02:38:00,
2013-05-29 21:53:00,77.8,70.0,29.69,South,172,8.0,15.0,78,0.00,,,0.06,weatherlink.com 1.10,2013-05-30 02:53:00,
2013-05-29 22:08:00,77.6,71.0,29.69,SSW,204,14.0,22.0,80,0.00,,,0.06,weatherlink.com 1.10,2013-05-30 03:08:00,
2013-05-29 22:23:00,77.4,71.0,29.70,SSE,158,9.0,22.0,81,0.00,,,0.06,weatherlink.com 1.10,2013-05-30 03:23:00,
2013-05-29 22:38:00,77.1,71.0,29.71,SE,143,15.0,23.0,81,0.00,,,0.06,weatherlink.com 1.10,2013-05-30 03:38:00,
2013-05-29 22:53:00,76.8,71.0,29.71,SSE,158,4.0,21.0,82,0.00,,,0.06,weatherlink.com 1.10,2013-05-30 03:53:00,
2013-05-29 23:08:00,76.7,71.0,29.72,SE,135,9.0,15.0,83,0.00,,,0.06,weatherlink.com 1.10,2013-05-30 04:08:00,
2013-05-29 23:23:00,76.7,71.0,29.72,SE,136,5.0,15.0,83,0.00,,,0.06,weatherlink.com 1.10,2013-05-30 04:23:00,
2013-05-29 23:38:00,76.7,71.0,29.72,SSE,165,5.0,15.0,83,0.00,,,0.06,weatherlink.com 1.10,2013-05-30 04:38:00,
2013-05-29 23:53:00,76.7,71.0,29.72,SSE,164,5.0,17.0,83,0.00,,,0.06,weatherlink.com 1.10,2013-05-30 04:53:00,